Terminal Aerodrome Forecast
Issued by NWS

Home | Current Version | Previous Version | Text Only | Print | Product List | Glossary On
Versions: 1 2 3 4 5 6 7 8 9 10 11 12 13 14 15 16 17 18 19 20
890
FTUS43 KDLH 150541
TAFBRD
TAF
KBRD 150541Z 1506/1606 00000KT 1/4SM FG VV003
     FM150900 30008KT 1 1/2SM BR BKN005 OVC010
     FM151200 30015G22KT 6SM BR SCT008 BKN015
     FM151800 31017G25KT P6SM OVC015
     FM160200 33009KT P6SM BKN035=

USA.gov is the U.S. government's official web portal to all federal, state and local government web resources and services.